Time;durP1;ratioP1;P1;durP2;ratioP2;P2;SDS_P1;SDS_P2;PMS_P1;PMS_P2;Temp;Humidity;BMP_temperature;BMP_pressure;BME280_temperature;BME280_humidity;BME280_pressure;Samples;Min_cycle;Max_cycle;Signal;HPM_P1;HPM_P2
2022/03/02 00:00:13;;;;;;;54.40;20.50;;;-6.50;99.90;;;;;;8333650;28;20225;-65
2022/03/02 00:04:14;;;;;;;32.90;14.97;;;-6.50;99.90;;;;;;8332688;28;20292;-65
2022/03/02 00:08:14;;;;;;;30.93;13.97;;;-6.60;99.90;;;;;;8350595;28;20212;-65
2022/03/02 00:12:15;;;;;;;26.53;13.07;;;-6.70;99.90;;;;;;8332668;28;20266;-65
2022/03/02 00:16:19;;;;;;;24.97;11.90;;;-6.80;99.90;;;;;;8349951;28;20218;-65
2022/03/02 00:20:20;;;;;;;34.23;14.40;;;-6.80;99.90;;;;;;8349630;28;20228;-64
2022/03/02 00:24:20;;;;;;;31.07;16.43;;;-6.90;99.90;;;;;;8332543;28;20205;-64
2022/03/02 00:28:22;;;;;;;39.30;15.83;;;-6.90;99.90;;;;;;8333501;28;20206;-64
2022/03/02 00:32:23;;;;;;;27.47;13.30;;;-6.90;99.90;;;;;;8349674;28;20259;-64
2022/03/02 00:36:24;;;;;;;31.47;14.10;;;-7.00;99.90;;;;;;8332448;28;20233;-64
2022/03/02 00:40:25;;;;;;;25.43;13.37;;;-7.00;99.90;;;;;;8326484;28;20205;-65
2022/03/02 00:44:25;;;;;;;36.50;14.73;;;-7.10;99.90;;;;;;8343130;28;20206;-64
2022/03/02 00:48:27;;;;;;;32.80;15.97;;;-7.10;99.90;;;;;;8327561;28;20205;-64
2022/03/02 00:52:28;;;;;;;29.20;14.90;;;-7.10;99.90;;;;;;8330199;28;20284;-64
2022/03/02 00:56:28;;;;;;;35.47;16.40;;;-7.10;99.90;;;;;;8345551;28;20221;-65
2022/03/02 01:00:29;;;;;;;34.50;13.53;;;-7.10;99.90;;;;;;8328466;28;20302;-64
2022/03/02 01:04:30;;;;;;;29.80;14.80;;;-7.10;99.90;;;;;;8342918;28;20209;-64
2022/03/02 01:08:32;;;;;;;28.63;13.57;;;-7.20;99.90;;;;;;8341608;28;20201;-65
2022/03/02 01:12:33;;;;;;;34.47;16.43;;;-7.20;99.90;;;;;;8336979;28;20217;-65
2022/03/02 01:16:35;;;;;;;36.63;16.00;;;-7.20;99.90;;;;;;8355044;28;20475;-65
2022/03/02 01:20:36;;;;;;;35.77;15.40;;;-7.20;99.90;;;;;;8336044;28;20205;-65
2022/03/02 01:24:36;;;;;;;29.67;15.83;;;-7.20;99.90;;;;;;8362019;28;20278;-64
2022/03/02 01:28:37;;;;;;;35.47;17.27;;;-7.10;99.90;;;;;;8336741;28;20217;-64
2022/03/02 01:32:38;;;;;;;36.10;18.67;;;-7.10;99.90;;;;;;8336177;28;20304;-65
2022/03/02 01:36:39;;;;;;;36.10;17.97;;;-7.00;99.90;;;;;;8354229;28;20221;-65
2022/03/02 01:40:40;;;;;;;46.97;20.17;;;-6.90;99.90;;;;;;8351445;28;20221;-64
2022/03/02 01:44:42;;;;;;;40.07;17.77;;;-6.80;99.90;;;;;;8329469;28;20214;-64
2022/03/02 01:48:43;;;;;;;43.63;17.90;;;-6.90;99.90;;;;;;8342943;28;20647;-64
2022/03/02 01:52:44;;;;;;;35.90;16.13;;;-7.00;99.90;;;;;;8350916;28;20213;-64
2022/03/02 01:56:45;;;;;;;39.00;16.30;;;-7.20;99.90;;;;;;8326737;28;20286;-64
2022/03/02 02:00:46;;;;;;;31.63;14.93;;;-7.30;99.90;;;;;;8329169;28;20247;-64
2022/03/02 02:04:47;;;;;;;32.90;14.03;;;-7.40;99.90;;;;;;8335990;28;20210;-64
2022/03/02 02:08:48;;;;;;;31.70;13.73;;;-7.50;99.90;;;;;;8329935;28;20653;-65
2022/03/02 02:12:49;;;;;;;30.97;14.13;;;-7.60;99.90;;;;;;8331736;28;20214;-65
2022/03/02 02:16:50;;;;;;;27.37;12.97;;;-7.60;99.90;;;;;;8327433;28;20251;-64
2022/03/02 02:20:51;;;;;;;27.97;12.73;;;-7.60;99.90;;;;;;8327800;28;20241;-64
2022/03/02 02:24:52;;;;;;;28.37;13.47;;;-7.60;99.90;;;;;;8329878;28;20206;-64
2022/03/02 02:28:53;;;;;;;33.93;13.40;;;-7.70;99.90;;;;;;8330031;28;20218;-64
2022/03/02 02:32:54;;;;;;;34.50;15.90;;;-7.70;99.90;;;;;;8327068;28;20210;-65
2022/03/02 02:36:56;;;;;;;29.57;15.03;;;-7.70;99.90;;;;;;8344717;28;20233;-64
2022/03/02 02:40:57;;;;;;;34.33;15.73;;;-7.80;99.90;;;;;;8326458;28;20215;-64
2022/03/02 02:44:58;;;;;;;38.73;17.13;;;-7.70;99.90;;;;;;8352387;28;20232;-64
2022/03/02 02:48:59;;;;;;;40.43;18.40;;;-7.70;99.90;;;;;;8351900;28;20225;-65
2022/03/02 02:53:03;;;;;;;49.43;23.10;;;-7.60;99.90;;;;;;8334620;28;20236;-64
2022/03/02 02:57:04;;;;;;;45.27;20.93;;;-7.50;99.90;;;;;;8332728;28;20227;-64
2022/03/02 03:01:05;;;;;;;42.20;17.93;;;-7.60;99.90;;;;;;8322902;28;20214;-65
2022/03/02 03:05:11;;;;;;;34.50;16.77;;;-7.60;99.90;;;;;;8329547;28;20210;-65
2022/03/02 03:09:12;;;;;;;40.30;15.70;;;-7.70;99.90;;;;;;8351395;28;20205;-64
2022/03/02 03:13:15;;;;;;;38.07;15.83;;;-7.80;99.90;;;;;;8349775;28;20216;-64
2022/03/02 03:17:15;;;;;;;39.17;14.80;;;-7.80;99.90;;;;;;8349957;28;20218;-64
2022/03/02 03:21:16;;;;;;;34.57;15.87;;;-7.90;99.90;;;;;;8335417;28;20216;-64
2022/03/02 03:25:17;;;;;;;30.33;15.30;;;-7.90;99.90;;;;;;8349321;28;20205;-64
2022/03/02 03:29:18;;;;;;;33.77;15.70;;;-7.90;99.90;;;;;;8330790;28;20234;-64
2022/03/02 03:33:19;;;;;;;31.60;16.13;;;-7.90;99.90;;;;;;8338028;28;20236;-64
2022/03/02 03:37:20;;;;;;;34.47;15.73;;;-8.00;99.90;;;;;;8345873;28;20225;-64
2022/03/02 03:41:21;;;;;;;36.20;16.10;;;-8.00;99.90;;;;;;8341663;28;20197;-64
2022/03/02 03:45:22;;;;;;;38.07;15.27;;;-8.00;99.90;;;;;;8346443;28;20268;-64
2022/03/02 03:49:23;;;;;;;42.90;18.33;;;-8.00;99.90;;;;;;8330773;28;20209;-65
2022/03/02 03:53:24;;;;;;;44.90;18.57;;;-8.10;99.90;;;;;;8347376;28;20257;-65
2022/03/02 03:57:25;;;;;;;38.90;17.43;;;-8.00;99.90;;;;;;8351031;28;20295;-64
2022/03/02 04:01:26;;;;;;;42.77;19.27;;;-8.00;99.90;;;;;;8323166;28;20213;-64
2022/03/02 04:05:27;;;;;;;39.13;18.40;;;-8.00;99.90;;;;;;8340408;28;20214;-64
2022/03/02 04:09:28;;;;;;;44.77;17.20;;;-7.90;99.90;;;;;;8326013;28;20209;-64
2022/03/02 04:13:28;;;;;;;41.60;18.67;;;-8.00;99.90;;;;;;8320267;28;20205;-65
2022/03/02 04:17:29;;;;;;;50.93;24.60;;;-8.10;99.90;;;;;;8319783;28;20260;-64
2022/03/02 04:21:31;;;;;;;59.13;27.87;;;-8.10;99.90;;;;;;8336069;28;20670;-64
2022/03/02 04:25:32;;;;;;;61.50;27.60;;;-8.10;99.90;;;;;;8332124;28;20579;-64
2022/03/02 04:29:33;;;;;;;54.70;23.63;;;-8.10;99.90;;;;;;8346813;28;20205;-64
2022/03/02 04:33:34;;;;;;;86.90;33.87;;;-8.20;99.90;;;;;;8347062;28;20210;-64
2022/03/02 04:37:35;;;;;;;90.37;30.93;;;-8.20;99.90;;;;;;8346922;28;20221;-64
2022/03/02 04:41:36;;;;;;;64.70;26.60;;;-8.20;99.90;;;;;;8328625;28;20205;-64
2022/03/02 04:45:37;;;;;;;46.93;19.97;;;-8.20;99.90;;;;;;8344422;28;20232;-64
2022/03/02 04:49:38;;;;;;;45.57;21.93;;;-8.20;99.90;;;;;;8346356;28;20232;-64
2022/03/02 04:53:39;;;;;;;99.43;36.13;;;-8.20;99.90;;;;;;8322480;28;20220;-64
2022/03/02 04:57:48;;;;;;;96.67;33.40;;;-8.30;99.90;;;;;;8341546;28;20225;-63
2022/03/02 05:01:49;;;;;;;86.73;29.90;;;-8.30;99.90;;;;;;8329266;28;20272;-64
2022/03/02 05:05:50;;;;;;;114.57;36.63;;;-8.30;99.90;;;;;;8346391;28;20209;-64
2022/03/02 05:09:50;;;;;;;101.53;46.67;;;-8.20;99.90;;;;;;8343479;28;20249;-64
2022/03/02 05:13:51;;;;;;;73.40;31.23;;;-8.20;99.90;;;;;;8327637;28;20267;-63
2022/03/02 05:17:52;;;;;;;64.97;28.10;;;-8.20;99.90;;;;;;8327158;28;20367;-64
2022/03/02 05:21:53;;;;;;;60.27;26.50;;;-8.20;99.90;;;;;;8338072;28;20309;-64
2022/03/02 05:25:53;;;;;;;61.17;27.70;;;-8.20;99.90;;;;;;8324094;28;20206;-64
2022/03/02 05:29:54;;;;;;;60.03;25.13;;;-8.20;99.90;;;;;;8346877;28;20224;-64
2022/03/02 05:33:55;;;;;;;62.00;25.43;;;-8.20;99.90;;;;;;8330552;28;20214;-63
2022/03/02 05:37:56;;;;;;;50.60;19.43;;;-8.30;99.90;;;;;;8328497;28;20236;-64
2022/03/02 05:41:57;;;;;;;39.43;19.40;;;-8.30;99.90;;;;;;8321997;28;20205;-64
2022/03/02 05:45:58;;;;;;;40.33;17.00;;;-8.40;99.90;;;;;;8322709;28;20269;-63
2022/03/02 05:49:58;;;;;;;124.33;34.57;;;-8.40;99.90;;;;;;8342091;28;20233;-64
2022/03/02 05:53:59;;;;;;;133.60;44.00;;;-8.40;99.90;;;;;;8345883;28;20225;-63
2022/03/02 05:58:01;;;;;;;67.40;25.87;;;-8.30;99.90;;;;;;8351732;28;20229;-64
2022/03/02 06:02:02;;;;;;;46.07;20.07;;;-8.20;99.90;;;;;;8327430;28;20210;-64
2022/03/02 06:06:04;;;;;;;63.30;24.80;;;-8.10;99.90;;;;;;8328716;28;20384;-63
2022/03/02 06:10:05;;;;;;;47.93;21.60;;;-8.10;99.90;;;;;;8347659;28;20619;-64
2022/03/02 06:14:07;;;;;;;54.47;25.47;;;-8.00;99.90;;;;;;8348998;28;20218;-63
2022/03/02 06:18:08;;;;;;;60.20;26.57;;;-7.90;99.90;;;;;;8324548;28;20547;-64
2022/03/02 06:22:09;;;;;;;68.13;31.37;;;-7.80;99.90;;;;;;8327747;28;20216;-64
2022/03/02 06:26:10;;;;;;;129.17;49.73;;;-7.60;99.90;;;;;;8351937;28;20210;-64
2022/03/02 06:30:12;;;;;;;118.97;47.00;;;-7.40;99.90;;;;;;8328536;28;20560;-64
2022/03/02 06:34:13;;;;;;;111.83;45.47;;;-7.30;99.90;;;;;;8326813;28;20260;-64
2022/03/02 06:38:14;;;;;;;107.70;44.83;;;-7.10;99.90;;;;;;8349761;28;20304;-64
2022/03/02 06:42:23;;;;;;;87.43;38.83;;;-6.90;99.90;;;;;;8351825;28;20206;-64
2022/03/02 06:46:35;;;;;;;73.70;35.97;;;-6.80;99.90;;;;;;8348549;28;20293;-65
2022/03/02 06:50:38;;;;;;;77.77;31.30;;;-6.60;99.90;;;;;;8350358;28;20271;-65
2022/03/02 06:54:43;;;;;;;66.63;30.17;;;-6.40;99.90;;;;;;8326090;28;20265;-65
2022/03/02 06:58:52;;;;;;;89.57;38.40;;;-6.20;99.90;;;;;;8350073;28;20259;-66
2022/03/02 07:03:05;;;;;;;104.10;43.63;;;-5.90;99.90;;;;;;8331636;28;20218;-66
2022/03/02 07:07:06;;;;;;;93.73;43.80;;;-5.60;99.90;;;;;;8333339;28;20218;-66
2022/03/02 07:11:08;;;;;;;91.97;40.03;;;-5.30;99.90;;;;;;8332684;28;20216;-65
2022/03/02 07:15:09;;;;;;;94.67;42.80;;;-4.90;99.90;;;;;;8321829;28;20215;-66
2022/03/02 07:19:11;;;;;;;101.27;44.07;;;-4.60;99.90;;;;;;8327684;28;20282;-66
2022/03/02 07:23:15;;;;;;;107.97;47.77;;;-4.30;99.90;;;;;;8341123;28;20212;-66
2022/03/02 07:27:16;;;;;;;114.90;47.80;;;-4.00;99.90;;;;;;8332802;28;20225;-66
2022/03/02 07:31:22;;;;;;;174.23;73.00;;;-3.70;99.90;;;;;;8327878;28;20209;-66
2022/03/02 07:35:25;;;;;;;178.17;67.50;;;-3.50;99.90;;;;;;8325607;28;20611;-66
2022/03/02 07:39:27;;;;;;;107.73;43.83;;;-3.30;99.90;;;;;;8337237;28;20225;-66
2022/03/02 07:43:29;;;;;;;106.60;48.70;;;-3.10;99.90;;;;;;8332711;28;20209;-66
2022/03/02 07:47:30;;;;;;;98.67;44.80;;;-2.90;99.90;;;;;;8345343;28;20208;-66
2022/03/02 07:51:35;;;;;;;87.30;43.57;;;-2.80;99.90;;;;;;8346217;28;20280;-67
2022/03/02 07:55:38;;;;;;;92.53;43.43;;;-2.60;99.90;;;;;;8347025;28;20205;-66
2022/03/02 07:59:41;;;;;;;95.03;43.53;;;-2.50;99.90;;;;;;8349106;28;20229;-67
2022/03/02 08:03:43;;;;;;;105.00;48.83;;;-2.40;99.90;;;;;;8326220;28;20235;-66
2022/03/02 08:07:44;;;;;;;109.60;48.80;;;-2.20;99.90;;;;;;8334428;28;20206;-67
2022/03/02 08:11:45;;;;;;;104.13;49.93;;;-2.10;99.90;;;;;;8332672;28;20220;-67
2022/03/02 08:15:45;;;;;;;104.07;48.77;;;-1.90;99.90;;;;;;8332940;28;20210;-67
2022/03/02 08:19:47;;;;;;;86.17;42.63;;;-1.80;99.90;;;;;;8350790;28;20210;-67
2022/03/02 08:23:51;;;;;;;86.73;44.63;;;-1.60;99.90;;;;;;8349777;28;20658;-67
2022/03/02 08:27:53;;;;;;;80.30;42.03;;;-1.40;99.90;;;;;;8350525;28;20205;-67
2022/03/02 08:31:59;;;;;;;72.53;38.43;;;-1.20;99.90;;;;;;8350185;28;20221;-66
2022/03/02 08:36:00;;;;;;;67.90;35.93;;;-1.00;99.90;;;;;;8333364;28;20214;-66
2022/03/02 08:40:04;;;;;;;65.63;34.47;;;-0.80;1.00;;;;;;8331553;28;20214;-66
2022/03/02 08:44:07;;;;;;;65.63;35.97;;;-0.50;99.90;;;;;;8348792;28;20211;-65
2022/03/02 08:48:09;;;;;;;70.73;37.37;;;-0.20;81.30;;;;;;8341885;28;20206;-66
2022/03/02 08:52:10;;;;;;;68.00;36.57;;;0.10;1.00;;;;;;8344011;28;20220;-65
2022/03/02 08:56:11;;;;;;;64.63;33.27;;;0.40;99.90;;;;;;8324354;28;20217;-65
2022/03/02 09:00:16;;;;;;;75.67;35.43;;;0.70;1.00;;;;;;8345269;28;20217;-65
2022/03/02 09:04:17;;;;;;;56.40;29.40;;;1.10;1.00;;;;;;8321463;28;20206;-64
2022/03/02 09:08:18;;;;;;;54.97;28.63;;;1.50;1.00;;;;;;8326493;28;20205;-65
2022/03/02 09:12:19;;;;;;;60.57;31.60;;;1.80;1.00;;;;;;8330789;28;20212;-64
2022/03/02 09:16:20;;;;;;;50.90;27.57;;;2.00;1.00;;;;;;8325528;28;20217;-62
2022/03/02 09:20:22;;;;;;;58.93;30.50;;;2.30;99.90;;;;;;8328637;28;20259;-64
2022/03/02 09:24:26;;;;;;;42.00;21.87;;;2.40;1.00;;;;;;8345129;28;20210;-64
2022/03/02 09:28:30;;;;;;;40.07;22.43;;;2.50;99.90;;;;;;8324689;28;20341;-64
2022/03/02 09:32:32;;;;;;;38.10;19.53;;;2.70;1.00;;;;;;8335131;28;20267;-64
2022/03/02 09:36:38;;;;;;;33.10;20.67;;;3.00;99.90;;;;;;8349969;28;20217;-65
2022/03/02 09:40:43;;;;;;;32.80;18.97;;;3.20;99.90;;;;;;8346224;28;20310;-64
2022/03/02 09:44:47;;;;;;;29.23;15.50;;;3.40;57.50;;;;;;8344617;28;20210;-63
2022/03/02 09:48:50;;;;;;;15.33;10.17;;;3.50;1.00;;;;;;8345289;28;20213;-65
2022/03/02 09:52:54;;;;;;;17.03;9.50;;;3.60;99.90;;;;;;8354446;28;20209;-65
2022/03/02 09:56:56;;;;;;;20.43;11.17;;;3.70;99.90;;;;;;8334010;28;20226;-62
2022/03/02 10:00:59;;;;;;;14.80;9.63;;;3.90;99.90;;;;;;8343574;28;20301;-62
2022/03/02 10:05:06;;;;;;;18.43;9.97;;;4.20;99.90;;;;;;8343407;28;20271;-64
2022/03/02 10:09:09;;;;;;;23.67;11.70;;;4.40;99.90;;;;;;8344826;28;20325;-62
2022/03/02 10:13:12;;;;;;;19.97;9.83;;;4.50;99.90;;;;;;8344970;28;20208;-64
2022/03/02 10:17:19;;;;;;;16.53;10.70;;;4.70;99.90;;;;;;8346644;28;20221;-64
2022/03/02 10:21:26;;;;;;;17.37;9.33;;;4.70;99.90;;;;;;8340393;28;20209;-63
2022/03/02 10:25:54;;;;;;;15.77;10.13;;;4.80;99.90;;;;;;8342405;28;20233;-64
2022/03/02 10:30:06;;;;;;;21.30;12.03;;;4.80;99.90;;;;;;8330497;28;20240;-64
2022/03/02 10:34:25;;;;;;;14.53;9.37;;;4.70;99.90;;;;;;8347767;28;20220;-64
2022/03/02 10:38:59;;;;;;;15.37;9.20;;;4.80;99.90;;;;;;8339240;28;20245;-63
2022/03/02 10:43:05;;;;;;;14.13;9.67;;;4.80;99.90;;;;;;8338031;28;20219;-64
2022/03/02 10:47:15;;;;;;;15.97;8.97;;;4.90;99.90;;;;;;8358754;28;20209;-63
2022/03/02 10:51:17;;;;;;;18.00;10.40;;;4.90;99.90;;;;;;8347215;28;20212;-64
2022/03/02 10:55:21;;;;;;;16.63;9.30;;;5.10;99.90;;;;;;8363293;28;20235;-63
2022/03/02 10:59:24;;;;;;;16.20;10.07;;;5.10;99.90;;;;;;8344663;28;20267;-63
2022/03/02 11:03:28;;;;;;;14.53;9.60;;;5.20;99.90;;;;;;8345238;28;20209;-64
2022/03/02 11:07:29;;;;;;;14.93;9.80;;;5.30;99.90;;;;;;8345654;28;20210;-65
2022/03/02 11:11:35;;;;;;;11.33;7.67;;;5.40;99.90;;;;;;8355778;28;20237;-63
2022/03/02 11:15:57;;;;;;;13.47;8.63;;;5.60;99.90;;;;;;8344736;28;20237;-64
2022/03/02 11:20:06;;;;;;;18.83;11.73;;;5.60;99.90;;;;;;8342319;28;20240;-63
2022/03/02 11:24:08;;;;;;;11.83;7.27;;;5.70;99.90;;;;;;8345533;28;20217;-63
2022/03/02 11:28:17;;;;;;;12.70;7.73;;;5.80;91.90;;;;;;8330945;28;20285;-63
2022/03/02 11:32:19;;;;;;;12.53;7.37;;;5.80;96.60;;;;;;8338967;28;20300;-63
2022/03/02 11:36:20;;;;;;;13.53;7.83;;;5.90;94.20;;;;;;8361261;28;20251;-63
2022/03/02 11:40:43;;;;;;;27.90;12.40;;;6.00;96.80;;;;;;8362707;28;20209;-64
2022/03/02 11:44:44;;;;;;;15.57;8.60;;;6.30;97.30;;;;;;8313833;28;20209;-65
2022/03/02 11:48:45;;;;;;;13.17;9.10;;;6.30;91.00;;;;;;8339999;28;20209;-64
2022/03/02 11:52:46;;;;;;;16.17;8.77;;;6.40;92.50;;;;;;8332783;28;20214;-64
2022/03/02 11:56:47;;;;;;;12.90;9.30;;;6.50;86.90;;;;;;8348920;28;20244;-63
2022/03/02 12:00:48;;;;;;;16.87;10.07;;;6.60;88.50;;;;;;8331783;28;20222;-63
2022/03/02 12:05:04;;;;;;;18.90;11.27;;;6.70;77.00;;;;;;8362768;28;20296;-65
2022/03/02 12:09:05;;;;;;;13.43;8.83;;;6.70;56.40;;;;;;8344067;28;20259;-64
2022/03/02 12:13:06;;;;;;;18.83;9.33;;;6.70;43.10;;;;;;8346650;28;20206;-65
2022/03/02 12:17:25;;;;;;;16.20;9.70;;;6.80;40.40;;;;;;8344990;28;20217;-64
2022/03/02 12:21:30;;;;;;;15.87;8.57;;;6.90;34.30;;;;;;8358531;28;20234;-63
2022/03/02 12:25:30;;;;;;;19.27;10.17;;;6.90;40.90;;;;;;8345092;28;20275;-64
2022/03/02 12:29:36;;;;;;;12.37;7.73;;;6.80;16.90;;;;;;8346082;28;20201;-64
2022/03/02 12:33:37;;;;;;;12.93;8.57;;;6.80;6.20;;;;;;8342017;28;20214;-64
2022/03/02 12:37:39;;;;;;;12.63;8.57;;;6.90;1.00;;;;;;8340747;28;20213;-64
2022/03/02 12:41:40;;;;;;;12.13;8.50;;;6.80;1.00;;;;;;8342194;28;20288;-65
2022/03/02 12:45:44;;;;;;;11.93;7.33;;;6.80;1.50;;;;;;8341238;28;20274;-64
2022/03/02 12:49:49;;;;;;;11.27;6.90;;;6.90;1.00;;;;;;8339324;28;20620;-63
2022/03/02 12:53:50;;;;;;;12.07;7.73;;;6.90;1.00;;;;;;8339409;28;20210;-64
2022/03/02 12:57:51;;;;;;;13.60;9.03;;;6.80;1.00;;;;;;8339767;28;20233;-64
2022/03/02 13:01:52;;;;;;;13.17;7.63;;;6.80;1.00;;;;;;8346600;28;20452;-63
2022/03/02 13:05:59;;;;;;;10.97;6.83;;;6.80;1.00;;;;;;8363726;28;20224;-64
2022/03/02 13:10:05;;;;;;;9.67;6.47;;;6.80;1.00;;;;;;8357576;28;20235;-64
2022/03/02 13:14:32;;;;;;;15.87;7.53;;;6.90;1.00;;;;;;8345402;28;20213;-64
2022/03/02 13:18:39;;;;;;;13.47;7.97;;;6.90;1.00;;;;;;8342283;28;20302;-62
2022/03/02 13:22:39;;;;;;;12.67;7.47;;;7.00;1.00;;;;;;8351517;28;20211;-64
2022/03/02 13:27:12;;;;;;;11.30;7.00;;;7.10;1.00;;;;;;8355960;28;20280;-64
2022/03/02 13:31:18;;;;;;;14.30;8.10;;;7.10;1.00;;;;;;8344871;28;20209;-63
2022/03/02 13:35:24;;;;;;;13.90;8.50;;;7.20;1.00;;;;;;8344456;28;20198;-64
2022/03/02 13:39:32;;;;;;;32.03;23.60;;;7.20;1.00;;;;;;8342519;28;20241;-63
2022/03/02 13:43:34;;;;;;;18.03;11.53;;;7.20;1.00;;;;;;8342732;28;20209;-64
2022/03/02 13:47:36;;;;;;;10.50;7.90;;;7.20;1.00;;;;;;8345981;28;20202;-64
2022/03/02 13:51:49;;;;;;;20.37;11.97;;;7.20;1.00;;;;;;8341854;28;20323;-64
2022/03/02 13:56:14;;;;;;;15.53;9.93;;;7.30;1.00;;;;;;8342106;28;20210;-63
2022/03/02 14:00:18;;;;;;;16.23;9.47;;;7.20;1.00;;;;;;8340919;28;20252;-65
2022/03/02 14:04:20;;;;;;;15.10;8.97;;;7.10;1.00;;;;;;8328193;28;20232;-65
2022/03/02 14:08:22;;;;;;;15.10;8.17;;;7.10;1.00;;;;;;8346203;28;20198;-64
2022/03/02 14:12:23;;;;;;;17.73;8.50;;;7.00;1.00;;;;;;8347151;28;20276;-65
2022/03/02 14:16:24;;;;;;;19.27;10.77;;;7.10;1.00;;;;;;8350808;28;20328;-65
2022/03/02 14:20:27;;;;;;;20.33;11.60;;;7.10;1.00;;;;;;8347981;28;20213;-63
2022/03/02 14:24:35;;;;;;;24.77;13.07;;;7.10;1.00;;;;;;8343472;28;20229;-63
2022/03/02 14:28:43;;;;;;;15.07;10.00;;;7.10;1.00;;;;;;8346725;28;20201;-64
2022/03/02 14:32:47;;;;;;;19.70;10.47;;;7.10;1.00;;;;;;8341836;28;20202;-64
2022/03/02 14:37:06;;;;;;;16.97;10.33;;;7.00;1.00;;;;;;8351786;28;20217;-65
2022/03/02 14:41:07;;;;;;;17.53;10.30;;;7.00;1.00;;;;;;8350624;28;20197;-65
2022/03/02 14:45:21;;;;;;;19.70;11.00;;;6.90;2.40;;;;;;8349736;28;20204;-64
2022/03/02 14:49:22;;;;;;;20.87;12.73;;;6.90;8.10;;;;;;8336341;28;20209;-64
2022/03/02 14:53:22;;;;;;;21.57;12.13;;;6.80;15.40;;;;;;8339457;28;20193;-65
2022/03/02 14:57:24;;;;;;;24.63;13.13;;;6.90;16.50;;;;;;8348822;28;20217;-65
2022/03/02 15:01:29;;;;;;;25.27;13.23;;;6.80;24.70;;;;;;8348312;28;20221;-64
2022/03/02 15:05:30;;;;;;;23.87;14.03;;;6.70;29.10;;;;;;8348806;28;20190;-64
2022/03/02 15:09:31;;;;;;;19.03;11.27;;;6.60;36.90;;;;;;8349576;28;20212;-64
2022/03/02 15:17:51;;;;;;;19.53;10.13;;;6.50;62.20;;;;;;8366887;28;20263;-64
2022/03/02 15:21:53;;;;;;;18.00;11.80;;;6.50;77.00;;;;;;8348404;28;20210;-63
2022/03/02 15:25:54;;;;;;;18.30;9.30;;;6.40;92.00;;;;;;8343794;28;20202;-65
2022/03/02 15:30:07;;;;;;;16.37;8.30;;;6.30;95.40;;;;;;8348777;28;20217;-64
2022/03/02 15:34:20;;;;;;;14.50;8.27;;;6.20;98.90;;;;;;8332430;28;20201;-64
2022/03/02 15:38:24;;;;;;;16.90;9.57;;;6.00;91.70;;;;;;8347892;28;20226;-64
2022/03/02 15:42:33;;;;;;;17.50;10.37;;;5.90;95.60;;;;;;8348984;28;20197;-62
2022/03/02 15:46:34;;;;;;;16.13;9.60;;;5.70;99.80;;;;;;8366584;28;20233;-64
2022/03/02 15:50:37;;;;;;;14.40;8.33;;;5.60;99.90;;;;;;8332499;28;20202;-64
2022/03/02 15:54:56;;;;;;;15.50;9.17;;;5.50;99.90;;;;;;8348375;28;20213;-64
2022/03/02 15:58:57;;;;;;;15.03;8.53;;;5.30;99.90;;;;;;8349157;28;20461;-64
2022/03/02 16:02:59;;;;;;;12.87;8.13;;;5.10;99.90;;;;;;8348461;28;20217;-65
2022/03/02 16:07:02;;;;;;;11.93;7.00;;;4.90;99.90;;;;;;8348279;28;20253;-65
2022/03/02 16:11:09;;;;;;;11.30;7.17;;;4.60;99.90;;;;;;8348952;28;20210;-63
2022/03/02 16:15:15;;;;;;;13.53;8.13;;;4.30;99.90;;;;;;8348137;28;20247;-65
2022/03/02 16:19:29;;;;;;;11.00;7.23;;;3.90;99.90;;;;;;8348365;28;20225;-65
2022/03/02 16:23:40;;;;;;;11.17;6.37;;;3.50;99.90;;;;;;8347668;28;20196;-65
2022/03/02 16:28:09;;;;;;;10.07;5.90;;;3.10;1.00;;;;;;8348089;28;20197;-65
2022/03/02 16:32:16;;;;;;;8.30;5.50;;;2.60;1.00;;;;;;8348700;28;20284;-63
2022/03/02 16:36:17;;;;;;;7.07;4.80;;;2.20;1.00;;;;;;8345541;28;20289;-63
2022/03/02 16:40:18;;;;;;;9.57;5.80;;;1.90;1.00;;;;;;8348222;28;20205;-63
2022/03/02 16:44:19;;;;;;;11.33;6.30;;;1.50;1.00;;;;;;8348755;28;20194;-63
2022/03/02 16:48:21;;;;;;;9.57;5.80;;;1.10;1.00;;;;;;8347884;28;20200;-63
2022/03/02 16:52:22;;;;;;;9.47;5.80;;;0.80;57.90;;;;;;8331973;28;20228;-63
2022/03/02 16:56:24;;;;;;;10.53;6.20;;;0.50;99.90;;;;;;8347351;28;20208;-64
2022/03/02 17:00:31;;;;;;;10.70;6.70;;;0.30;99.90;;;;;;8347616;28;20224;-64
2022/03/02 17:04:32;;;;;;;10.80;6.23;;;0.10;99.90;;;;;;8347310;28;20236;-64
2022/03/02 17:08:33;;;;;;;10.30;6.37;;;-0.20;99.90;;;;;;8348143;28;20208;-64
2022/03/02 17:12:34;;;;;;;11.37;5.90;;;-0.40;99.90;;;;;;8347911;28;20207;-63
2022/03/02 17:16:35;;;;;;;11.07;6.53;;;-0.60;99.90;;;;;;8347842;28;20311;-64
2022/03/02 17:20:36;;;;;;;13.07;8.17;;;-0.80;99.90;;;;;;8347970;28;20212;-64
2022/03/02 17:24:37;;;;;;;11.93;7.83;;;-0.90;1.00;;;;;;8347432;28;20214;-64
2022/03/02 17:28:38;;;;;;;13.87;7.70;;;-1.10;1.00;;;;;;8347575;28;20203;-65
2022/03/02 17:32:41;;;;;;;13.10;7.73;;;-1.20;1.00;;;;;;8347239;28;20215;-66
2022/03/02 17:36:42;;;;;;;23.67;9.70;;;-1.30;1.00;;;;;;8330826;28;20225;-65
2022/03/02 17:40:45;;;;;;;53.70;19.87;;;-1.50;1.00;;;;;;8331253;28;20214;-65
2022/03/02 17:44:50;;;;;;;66.47;21.60;;;-1.60;89.20;;;;;;8346927;28;20198;-65
2022/03/02 17:48:50;;;;;;;40.03;14.37;;;-1.70;99.90;;;;;;8352355;28;20206;-65
2022/03/02 17:52:52;;;;;;;27.00;9.50;;;-1.90;99.90;;;;;;8350908;28;20198;-66
2022/03/02 17:56:53;;;;;;;17.57;7.97;;;-2.00;99.90;;;;;;8350078;28;20217;-66
2022/03/02 18:00:54;;;;;;;14.93;6.90;;;-2.20;1.00;;;;;;8348255;28;20248;-66
2022/03/02 18:04:55;;;;;;;22.80;11.10;;;-2.30;1.00;;;;;;8364856;28;20202;-66
2022/03/02 18:08:56;;;;;;;17.87;9.10;;;-2.30;99.90;;;;;;8345269;28;20202;-65
2022/03/02 18:12:57;;;;;;;13.53;7.83;;;-2.40;99.90;;;;;;8339104;28;20202;-65
2022/03/02 18:16:59;;;;;;;16.70;8.83;;;-2.50;99.90;;;;;;8363106;28;20224;-65
2022/03/02 18:21:04;;;;;;;16.13;8.00;;;-2.50;99.90;;;;;;8356789;28;20224;-65
2022/03/02 18:25:07;;;;;;;13.73;7.13;;;-2.60;99.90;;;;;;8341226;28;20193;-65
2022/03/02 18:29:08;;;;;;;15.13;7.37;;;-2.70;99.90;;;;;;8346517;28;20212;-65
2022/03/02 18:33:09;;;;;;;13.03;7.33;;;-2.80;99.90;;;;;;8341083;28;20252;-65
2022/03/02 18:37:11;;;;;;;14.73;7.67;;;-2.80;1.00;;;;;;8344181;28;20245;-64
2022/03/02 18:41:12;;;;;;;17.93;9.03;;;-2.90;1.00;;;;;;8364182;28;20288;-65
2022/03/02 18:45:14;;;;;;;17.90;8.87;;;-3.00;1.00;;;;;;8348859;28;20201;-65
2022/03/02 18:49:21;;;;;;;16.07;8.70;;;-3.10;1.00;;;;;;8349038;28;20224;-65
2022/03/02 18:53:22;;;;;;;17.30;8.53;;;-3.20;99.90;;;;;;8366789;28;20205;-65
2022/03/02 18:57:23;;;;;;;22.83;9.80;;;-3.20;99.90;;;;;;8348239;28;20222;-65
2022/03/02 19:01:26;;;;;;;22.43;10.63;;;-3.30;99.90;;;;;;8338778;28;20209;-65
2022/03/02 19:05:27;;;;;;;21.63;13.00;;;-3.40;99.90;;;;;;8348472;28;20210;-64
2022/03/02 19:09:30;;;;;;;25.43;14.93;;;-3.40;1.00;;;;;;8364552;28;20220;-65
2022/03/02 19:13:33;;;;;;;17.00;10.93;;;-3.50;1.00;;;;;;8347497;28;20217;-65
2022/03/02 19:17:34;;;;;;;18.80;10.07;;;-3.50;1.00;;;;;;8345745;28;20221;-65
2022/03/02 19:21:36;;;;;;;23.77;11.07;;;-3.60;1.00;;;;;;8348166;28;20223;-65
2022/03/02 19:25:37;;;;;;;24.03;11.40;;;-3.70;1.00;;;;;;8363678;28;20212;-65
2022/03/02 19:29:41;;;;;;;22.63;11.77;;;-3.70;1.00;;;;;;8344136;28;20206;-65
2022/03/02 19:33:42;;;;;;;22.30;10.87;;;-3.80;32.70;;;;;;8338710;28;20209;-64
2022/03/02 19:37:47;;;;;;;20.93;11.13;;;-3.80;92.40;;;;;;8345871;28;20221;-65
2022/03/02 19:41:49;;;;;;;26.27;12.20;;;-3.90;99.90;;;;;;8338460;28;20244;-65
2022/03/02 19:45:50;;;;;;;33.27;12.60;;;-4.00;99.90;;;;;;8345916;28;20235;-65
2022/03/02 19:49:52;;;;;;;31.10;12.93;;;-4.00;99.90;;;;;;8334810;28;20282;-65
2022/03/02 19:53:53;;;;;;;27.77;13.60;;;-4.10;99.90;;;;;;8346055;28;20224;-64
2022/03/02 19:57:56;;;;;;;24.00;12.73;;;-4.10;99.90;;;;;;8344208;28;20316;-65
2022/03/02 20:01:58;;;;;;;25.00;12.53;;;-4.20;1.00;;;;;;8360734;28;20224;-64
2022/03/02 20:06:01;;;;;;;29.53;13.33;;;-4.30;99.90;;;;;;8345007;28;20319;-64
2022/03/02 20:10:04;;;;;;;24.97;11.93;;;-4.30;99.90;;;;;;8363996;28;20196;-64
2022/03/02 20:14:06;;;;;;;35.93;15.20;;;-4.30;1.00;;;;;;8345745;28;20234;-64
2022/03/02 20:18:07;;;;;;;31.60;16.60;;;-4.30;1.00;;;;;;8346618;28;20220;-65
2022/03/02 20:22:09;;;;;;;31.63;16.07;;;-4.40;1.00;;;;;;8364195;28;20206;-65
2022/03/02 20:26:09;;;;;;;44.67;18.37;;;-4.40;1.00;;;;;;8346426;28;20216;-64
2022/03/02 20:30:14;;;;;;;42.80;17.10;;;-4.50;1.00;;;;;;8341978;28;20206;-64
2022/03/02 20:34:17;;;;;;;31.87;14.43;;;-4.60;1.00;;;;;;8346127;28;20258;-65
2022/03/02 20:38:21;;;;;;;44.83;18.37;;;-4.70;3.80;;;;;;8364748;28;20229;-65
2022/03/02 20:42:22;;;;;;;49.57;21.20;;;-4.70;99.90;;;;;;8345560;28;20259;-65
2022/03/02 20:46:23;;;;;;;36.13;15.93;;;-4.80;99.90;;;;;;8345549;28;20212;-65
2022/03/02 20:50:25;;;;;;;30.00;13.13;;;-4.80;99.90;;;;;;8363006;28;20207;-65